createdAt,value
2019-04-03T00:01:10.627Z,81.23
2019-04-03T00:03:40.879Z,81.23
2019-04-03T00:06:11.285Z,81.28
2019-04-03T00:08:41.842Z,81.28
2019-04-03T00:11:12.600Z,82.73
2019-04-03T00:13:42.679Z,82.87
2019-04-03T00:16:15.283Z,83.39
2019-04-03T00:18:46.921Z,83.39
2019-04-03T00:21:19.162Z,82.91
2019-04-03T00:23:47.954Z,82.91
2019-04-03T00:26:17.895Z,83.49
2019-04-03T00:28:48.724Z,82.52
2019-04-03T00:31:18.657Z,82.54
2019-04-03T00:33:48.501Z,82.54
2019-04-03T00:36:18.444Z,81.48
2019-04-03T00:38:49.007Z,81.88
2019-04-03T00:41:18.984Z,81.88
2019-04-03T00:43:49.277Z,81.35
2019-04-03T00:46:19.687Z,80.71
2019-04-03T00:48:49.808Z,81.20
2019-04-03T00:51:19.628Z,81.20
2019-04-03T00:53:50.094Z,80.38
2019-04-03T00:56:20.119Z,80.38
2019-04-03T00:58:50.053Z,80.59
2019-04-03T01:01:20.251Z,80.59
2019-04-03T01:03:50.365Z,81.55
2019-04-03T01:06:20.264Z,81.55
2019-04-03T01:08:50.671Z,81.43
2019-04-03T01:11:20.754Z,81.43
2019-04-03T01:13:50.385Z,81.71
2019-04-03T01:16:20.213Z,82.05
2019-04-03T01:18:50.596Z,81.66
2019-04-03T01:21:20.640Z,82.11
2019-04-03T01:23:50.480Z,83.15
2019-04-03T01:26:20.759Z,83.15
2019-04-03T01:28:50.879Z,82.42
2019-04-03T01:31:20.762Z,82.38
2019-04-03T01:33:50.712Z,82.38
2019-04-03T01:36:20.881Z,82.50
2019-04-03T01:38:50.931Z,83.47
2019-04-03T01:41:21.668Z,83.47
2019-04-03T01:43:53.167Z,83.61
2019-04-03T01:46:23.750Z,83.11
2019-04-03T01:48:53.972Z,83.89
2019-04-03T01:51:23.625Z,83.89
2019-04-03T01:53:53.680Z,83.78
2019-04-03T01:56:23.681Z,83.78
2019-04-03T01:58:54.239Z,83.12
2019-04-03T02:01:24.567Z,83.28
2019-04-03T02:03:54.660Z,83.69
2019-04-03T02:06:24.468Z,83.72
2019-04-03T02:08:54.552Z,83.13
2019-04-03T02:11:24.454Z,83.13
2019-04-03T02:13:56.082Z,83.30
2019-04-03T02:16:26.091Z,81.56
2019-04-03T02:18:56.039Z,81.56
2019-04-03T02:21:27.683Z,81.53
2019-04-03T02:23:58.002Z,82.23
2019-04-03T02:26:27.914Z,82.23
2019-04-03T02:28:57.805Z,82.94
2019-04-03T02:31:27.669Z,81.94
2019-04-03T02:34:01.246Z,81.94
2019-04-03T02:36:29.275Z,81.67
2019-04-03T02:38:59.399Z,81.67
2019-04-03T02:41:29.266Z,81.45
2019-04-03T02:43:59.486Z,81.45
2019-04-03T02:46:29.509Z,82.13
2019-04-03T02:49:00.153Z,82.13
2019-04-03T02:51:29.839Z,81.14
2019-04-03T02:54:02.488Z,81.14
2019-04-03T02:56:31.986Z,80.95
2019-04-03T02:59:02.264Z,80.95
2019-04-03T03:01:31.870Z,82.00
2019-04-03T03:04:01.969Z,82.00
2019-04-03T03:06:33.060Z,80.78
2019-04-03T03:09:04.313Z,80.78
2019-04-03T03:11:34.187Z,80.88
2019-04-03T03:16:31.532Z,79.94
2019-04-03T03:19:01.890Z,79.41
2019-04-03T03:21:32.217Z,79.50
2019-04-03T03:24:02.031Z,79.50
2019-04-03T03:26:32.256Z,80.32
2019-04-03T03:29:16.584Z,80.34
2019-04-03T03:32:02.622Z,79.36
2019-04-03T03:34:09.102Z,80.20
2019-04-03T03:36:38.860Z,80.20
2019-04-03T03:39:10.938Z,79.46
2019-04-03T03:41:40.516Z,78.93
2019-04-03T03:44:11.651Z,79.11
2019-04-03T03:46:41.652Z,79.11
2019-04-03T03:49:15.921Z,79.12
2019-04-03T03:51:43.305Z,78.49
2019-04-03T03:54:16.884Z,79.08
2019-04-03T03:56:44.974Z,79.08
2019-04-03T03:59:17.529Z,78.50
2019-04-03T04:01:46.642Z,77.95
2019-04-03T04:04:16.781Z,77.55
2019-04-03T04:06:46.509Z,77.55
2019-04-03T04:09:17.913Z,79.09
2019-04-03T04:11:47.742Z,79.18
2019-04-03T04:14:21.060Z,79.03
2019-04-03T04:16:49.186Z,79.53
2019-04-03T04:19:20.353Z,78.26
2019-04-03T04:21:50.543Z,77.63
2019-04-03T04:24:20.248Z,77.63
2019-04-03T04:26:50.642Z,77.52
2019-04-03T04:29:20.808Z,78.53
2019-04-03T04:31:50.816Z,78.39
2019-04-03T04:34:20.522Z,78.39
2019-04-03T04:36:50.159Z,79.03
2019-04-03T04:39:19.762Z,79.03
2019-04-03T04:41:50.129Z,79.73
2019-04-03T04:44:20.181Z,78.78
2019-04-03T04:46:50.010Z,78.78
2019-04-03T04:49:22.362Z,79.28
2019-04-03T04:51:51.425Z,79.28
2019-04-03T04:54:21.204Z,78.38
2019-04-03T04:56:51.143Z,77.99
2019-04-03T04:59:21.448Z,77.99
2019-04-03T05:01:51.624Z,78.39
2019-04-03T05:04:23.281Z,78.23
2019-04-03T05:06:53.862Z,78.23
2019-04-03T05:09:23.662Z,76.66
2019-04-03T05:11:53.591Z,76.66
2019-04-03T05:14:23.453Z,77.00
2019-04-03T05:16:55.416Z,78.00
2019-04-03T05:19:25.310Z,78.00
2019-04-03T05:21:55.240Z,77.91
2019-04-03T05:24:25.015Z,77.91
2019-04-03T05:26:55.212Z,77.73
2019-04-03T05:29:25.364Z,77.50
2019-04-03T05:31:56.625Z,77.50
2019-04-03T05:34:26.707Z,77.96
2019-04-03T05:36:56.442Z,74.42
2019-04-03T05:39:26.115Z,75.78
2019-04-03T05:41:58.511Z,75.57
2019-04-03T05:44:27.873Z,75.65
2019-04-03T05:46:59.667Z,76.42
2019-04-03T05:49:29.608Z,76.42
2019-04-03T05:51:59.832Z,76.89
2019-04-03T05:54:29.313Z,77.23
2019-04-03T05:56:59.075Z,77.23
2019-04-03T05:59:28.678Z,78.51
2019-04-03T06:01:58.285Z,78.51
2019-04-03T06:04:28.136Z,79.82
2019-04-03T06:06:58.178Z,79.82
2019-04-03T06:09:28.834Z,77.57
2019-04-03T06:11:58.405Z,77.06
2019-04-03T06:14:28.761Z,75.91
2019-04-03T06:16:58.642Z,75.91
2019-04-03T06:19:28.448Z,78.55
2019-04-03T06:21:58.523Z,78.86
2019-04-03T06:24:28.356Z,77.29
2019-04-03T06:26:58.242Z,77.03
2019-04-03T06:29:28.227Z,77.03
2019-04-03T06:31:58.474Z,76.82
2019-04-03T06:34:28.398Z,76.83
2019-04-03T06:36:58.214Z,75.37
2019-04-03T06:39:31.476Z,75.80
2019-04-03T06:42:00.247Z,76.11
2019-04-03T06:44:30.391Z,76.49
2019-04-03T06:47:01.495Z,76.47
2019-04-03T06:49:34.537Z,76.47
2019-04-03T06:52:07.093Z,76.16
2019-04-03T06:54:36.709Z,77.24
2019-04-03T06:57:06.550Z,77.24
2019-04-03T06:59:36.389Z,78.61
2019-04-03T07:02:06.383Z,78.61
2019-04-03T07:04:38.004Z,79.70
2019-04-03T07:07:07.592Z,80.24
2019-04-03T07:09:37.365Z,80.83
2019-04-03T07:12:07.439Z,81.12
2019-04-03T07:14:37.629Z,80.75
2019-04-03T07:17:07.320Z,80.60
2019-04-03T07:19:37.877Z,82.45
2019-04-03T07:22:08.671Z,82.45
2019-04-03T07:24:38.610Z,81.79
2019-04-03T07:27:08.405Z,82.39
2019-04-03T07:29:38.326Z,82.39
2019-04-03T07:32:08.609Z,81.56
2019-04-03T07:34:39.749Z,83.27
2019-04-03T07:37:10.034Z,82.10
2019-04-03T07:39:39.739Z,82.02
2019-04-03T07:42:11.145Z,80.93
2019-04-03T07:44:40.892Z,80.93
2019-04-03T07:47:15.316Z,81.07
2019-04-03T07:49:45.292Z,81.29
2019-04-03T07:52:16.556Z,80.87
2019-04-03T07:54:46.712Z,81.53
2019-04-03T07:57:16.883Z,81.75
2019-04-03T07:59:46.363Z,83.58
2019-04-03T08:02:16.144Z,83.58
2019-04-03T08:04:45.851Z,83.89
2019-04-03T08:07:15.629Z,82.90
2019-04-03T08:09:45.802Z,82.95
2019-04-03T08:12:17.500Z,82.95
2019-04-03T08:14:48.090Z,81.82
2019-04-03T08:17:19.045Z,81.94
2019-04-03T08:19:49.305Z,81.32
2019-04-03T08:22:19.469Z,81.60
2019-04-03T08:24:52.235Z,80.44
2019-04-03T08:27:22.707Z,78.96
2019-04-03T08:29:52.339Z,78.96
2019-04-03T08:32:22.706Z,81.27
2019-04-03T08:34:52.520Z,81.57
2019-04-03T08:37:29.492Z,81.51
2019-04-03T08:39:53.747Z,79.75
2019-04-03T08:42:24.202Z,79.75
2019-04-03T08:44:53.719Z,80.50
2019-04-03T08:47:23.939Z,79.16
2019-04-03T08:49:56.392Z,79.16
2019-04-03T08:52:25.323Z,80.82
2019-04-03T08:54:55.894Z,80.04
2019-04-03T08:57:25.971Z,78.81
2019-04-03T09:00:00.298Z,78.37
2019-04-03T09:02:30.202Z,77.07
2019-04-03T09:05:00.116Z,77.07
2019-04-03T09:07:30.327Z,79.06
2019-04-03T09:10:02.227Z,79.28
2019-04-03T09:12:32.421Z,79.28
2019-04-03T09:15:05.253Z,78.94
2019-04-03T09:17:34.972Z,78.49
2019-04-03T09:20:05.475Z,76.85
2019-04-03T09:22:36.214Z,76.53
2019-04-03T09:25:07.144Z,76.53
2019-04-03T09:27:37.974Z,78.15
2019-04-03T09:30:10.775Z,77.30
2019-04-03T09:32:41.291Z,77.30
2019-04-03T09:35:11.051Z,79.41
2019-04-03T09:37:41.417Z,79.41
2019-04-03T09:40:11.435Z,78.05
2019-04-03T09:42:41.743Z,78.33
2019-04-03T09:45:11.696Z,78.89
2019-04-03T09:47:41.441Z,78.89
2019-04-03T09:50:13.476Z,79.44
2019-04-03T09:52:49.044Z,78.32
2019-04-03T09:55:15.480Z,78.32
2019-04-03T09:57:45.558Z,77.74
2019-04-03T10:00:15.195Z,78.08
2019-04-03T10:02:45.417Z,78.49
2019-04-03T10:05:15.132Z,79.20
2019-04-03T10:07:45.330Z,79.10
2019-04-03T10:10:16.547Z,79.01
2019-04-03T10:12:47.941Z,79.00
2019-04-03T10:15:19.142Z,79.00
2019-04-03T10:17:49.285Z,78.59
2019-04-03T10:20:19.604Z,77.87
2019-04-03T10:22:49.549Z,77.87
2019-04-03T10:25:22.634Z,77.29
2019-04-03T10:27:53.811Z,77.10
2019-04-03T10:30:23.892Z,77.49
2019-04-03T10:32:53.850Z,76.79
2019-04-03T10:35:24.063Z,77.71
2019-04-03T10:37:54.111Z,77.02
2019-04-03T10:40:27.296Z,76.75
2019-04-03T10:43:00.903Z,76.75
2019-04-03T10:45:30.135Z,75.15
2019-04-03T10:48:00.393Z,74.39
2019-04-03T10:50:29.925Z,75.72
2019-04-03T10:53:00.005Z,74.09
2019-04-03T10:55:30.461Z,74.09
2019-04-03T10:58:01.885Z,75.33
2019-04-03T11:00:31.308Z,75.33
2019-04-03T11:03:00.959Z,74.71
2019-04-03T11:05:31.517Z,74.89
2019-04-03T11:08:01.517Z,74.89
2019-04-03T11:10:31.379Z,75.67
2019-04-03T11:13:03.572Z,74.60
2019-04-03T11:15:34.075Z,74.60
2019-04-03T11:18:05.987Z,75.38
2019-04-03T11:20:36.664Z,75.28
2019-04-03T11:25:41.922Z,73.26
2019-04-03T11:28:11.494Z,74.10
2019-04-03T11:30:42.230Z,75.66
2019-04-03T11:30:53.755Z,73.26
2019-04-03T11:33:13.577Z,75.66
2019-04-03T11:35:43.739Z,73.51
2019-04-03T11:38:27.120Z,72.09
2019-04-03T11:40:51.665Z,71.81
2019-04-03T11:43:25.296Z,69.93
2019-04-03T11:45:54.874Z,70.72
2019-04-03T11:48:27.317Z,70.72
2019-04-03T11:50:57.677Z,71.33
2019-04-03T11:53:28.180Z,69.06
2019-04-03T11:56:01.157Z,69.06
2019-04-03T11:58:31.167Z,68.38
2019-04-03T12:01:01.513Z,67.58
2019-04-03T12:03:31.113Z,68.74
2019-04-03T12:06:01.344Z,69.44
2019-04-03T12:08:37.031Z,70.08
2019-04-03T12:11:08.245Z,70.08
2019-04-03T12:13:45.962Z,69.83
2019-04-03T12:16:14.969Z,68.72
2019-04-03T12:18:48.144Z,69.27
2019-04-03T12:21:20.461Z,67.78
2019-04-03T12:23:52.838Z,67.64
2019-04-03T12:26:23.172Z,68.77
2019-04-03T12:28:53.843Z,69.96
2019-04-03T12:31:25.957Z,69.96
2019-04-03T12:34:02.591Z,68.27
2019-04-03T12:36:28.248Z,68.27
2019-04-03T12:39:00.953Z,66.27
2019-04-03T12:41:31.218Z,66.78
2019-04-03T12:44:01.448Z,65.11
2019-04-03T12:46:40.749Z,65.10
2019-04-03T12:49:09.623Z,65.10
2019-04-03T12:51:40.559Z,65.48
2019-04-03T12:54:12.842Z,65.18
2019-04-03T12:56:42.455Z,63.54
2019-04-03T12:59:12.999Z,63.43
2019-04-03T13:01:43.232Z,65.87
2019-04-03T13:04:13.186Z,65.87
2019-04-03T13:06:43.750Z,64.80
2019-04-03T13:09:13.706Z,64.80
2019-04-03T13:11:44.066Z,66.68
2019-04-03T13:14:23.753Z,65.26
2019-04-03T13:16:47.599Z,65.55
2019-04-03T13:19:18.148Z,65.55
2019-04-03T13:21:48.165Z,64.41
2019-04-03T13:24:18.286Z,65.83
2019-04-03T13:26:49.472Z,65.83
2019-04-03T13:29:20.852Z,64.22
2019-04-03T13:31:50.705Z,63.72
2019-04-03T13:34:20.937Z,65.20
2019-04-03T13:36:51.721Z,63.48
2019-04-03T13:39:22.336Z,63.48
2019-04-03T13:41:52.383Z,63.98
2019-04-03T13:44:25.967Z,63.88
2019-04-03T13:46:55.062Z,65.01
2019-04-03T13:49:25.108Z,65.84
2019-04-03T13:51:56.260Z,66.10
2019-04-03T13:54:29.303Z,65.74
2019-04-03T13:56:59.839Z,67.77
2019-04-03T13:59:30.349Z,67.77
2019-04-03T14:02:01.437Z,65.31
2019-04-03T14:04:31.238Z,65.90
2019-04-03T14:07:03.258Z,64.85
2019-04-03T14:09:32.845Z,64.93
2019-04-03T14:12:06.882Z,64.74
2019-04-03T14:14:37.822Z,64.92
2019-04-03T14:17:08.524Z,65.12
2019-04-03T14:19:44.358Z,65.80
2019-04-03T14:22:10.402Z,65.80
2019-04-03T14:24:45.143Z,66.32
2019-04-03T14:27:22.291Z,67.40
2019-04-03T14:29:46.418Z,67.40
2019-04-03T14:32:16.628Z,67.85
2019-04-03T14:34:49.042Z,65.91
2019-04-03T14:37:24.495Z,65.58
2019-04-03T14:39:53.207Z,65.68
2019-04-03T14:42:25.670Z,66.23
2019-04-03T14:44:58.160Z,66.23
2019-04-03T14:47:28.451Z,65.91
2019-04-03T14:49:58.680Z,65.76
2019-04-03T14:52:31.796Z,65.76
2019-04-03T14:55:15.200Z,64.46
2019-04-03T14:57:32.952Z,65.25
2019-04-03T15:00:09.816Z,65.25
2019-04-03T15:02:41.309Z,64.00
2019-04-03T15:05:14.789Z,64.70
2019-04-03T15:07:45.539Z,65.07
2019-04-03T15:10:15.852Z,65.07
2019-04-03T15:12:45.661Z,65.28
2019-04-03T15:15:15.884Z,65.24
2019-04-03T15:17:46.047Z,65.13
2019-04-03T15:20:17.936Z,65.13
2019-04-03T15:22:47.387Z,65.48
2019-04-03T15:25:19.556Z,65.48
2019-04-03T15:27:49.368Z,65.19
2019-04-03T15:30:20.593Z,65.19
2019-04-03T15:32:51.469Z,65.30
2019-04-03T15:35:22.173Z,65.30
2019-04-03T15:37:52.342Z,65.01
2019-04-03T15:40:24.717Z,65.35
2019-04-03T15:42:54.091Z,65.35
2019-04-03T15:45:25.506Z,66.47
2019-04-03T15:47:57.647Z,66.47
2019-04-03T15:50:28.685Z,66.79
2019-04-03T15:52:59.193Z,66.84
2019-04-03T15:55:28.891Z,67.62
2019-04-03T15:57:59.225Z,67.11
2019-04-03T16:00:34.268Z,67.11
2019-04-03T16:03:06.251Z,67.33
2019-04-03T16:05:37.205Z,67.99
2019-04-03T16:08:06.815Z,67.99
2019-04-03T16:10:43.415Z,69.46
2019-04-03T16:13:15.569Z,69.70
2019-04-03T16:15:44.801Z,69.70
2019-04-03T16:18:15.047Z,70.41
2019-04-03T16:20:48.163Z,72.07
2019-04-03T16:23:17.323Z,71.41
2019-04-03T16:25:48.733Z,71.41
2019-04-03T16:28:18.480Z,72.58
2019-04-03T16:30:52.399Z,72.26
2019-04-03T16:33:23.553Z,72.26
2019-04-03T16:35:51.684Z,73.00
2019-04-03T16:38:21.832Z,73.00
2019-04-03T16:40:54.414Z,73.60
2019-04-03T16:43:25.827Z,74.11
2019-04-03T16:45:55.716Z,74.11
2019-04-03T16:48:25.891Z,73.35
2019-04-03T16:50:55.645Z,74.06
2019-04-03T16:53:26.516Z,74.06
2019-04-03T16:55:58.874Z,74.03
2019-04-03T16:58:29.333Z,73.94
2019-04-03T17:01:13.584Z,75.73
2019-04-03T17:03:44.679Z,76.47
2019-04-03T17:06:15.823Z,76.47
2019-04-03T17:08:45.839Z,78.08
2019-04-03T17:11:15.686Z,77.12
2019-04-03T17:13:45.755Z,76.31
2019-04-03T17:16:15.472Z,78.18
2019-04-03T17:18:47.134Z,78.45
2019-04-03T17:21:17.165Z,79.92
2019-04-03T17:23:54.128Z,79.61
2019-04-03T17:26:24.069Z,79.83
2019-04-03T17:29:02.423Z,80.31
2019-04-03T17:31:25.661Z,80.31
2019-04-03T17:33:55.764Z,80.28
2019-04-03T17:36:27.095Z,80.28
2019-04-03T17:38:57.552Z,78.22
2019-04-03T17:41:30.558Z,78.22
2019-04-03T17:44:01.001Z,80.12
2019-04-03T17:46:31.357Z,80.12
2019-04-03T17:49:01.968Z,78.99
2019-04-03T17:51:33.493Z,77.47
2019-04-03T17:54:07.861Z,77.47
2019-04-03T17:56:37.424Z,78.57
2019-04-03T17:59:11.276Z,79.79
2019-04-03T18:01:42.904Z,79.79
2019-04-03T18:04:16.712Z,80.35
2019-04-03T18:06:46.642Z,80.38
2019-04-03T18:09:16.356Z,80.38
2019-04-03T18:11:47.377Z,80.86
2019-04-03T18:14:17.303Z,80.27
2019-04-03T18:16:50.637Z,80.86
2019-04-03T18:19:36.576Z,81.87
2019-04-03T18:21:56.214Z,81.61
2019-04-03T18:24:27.114Z,82.84
2019-04-03T18:27:02.258Z,82.84
2019-04-03T18:29:32.071Z,82.65
2019-04-03T18:32:01.931Z,81.52
2019-04-03T18:34:31.720Z,82.85
2019-04-03T18:37:06.084Z,83.28
2019-04-03T18:39:35.707Z,84.09
2019-04-03T18:42:05.618Z,83.34
2019-04-03T18:44:35.731Z,83.34
2019-04-03T18:47:06.772Z,84.20
2019-04-03T18:49:40.088Z,84.20
2019-04-03T18:52:11.728Z,84.85
2019-04-03T18:54:42.494Z,84.62
2019-04-03T18:57:12.942Z,83.49
2019-04-03T18:59:43.180Z,83.49
2019-04-03T19:02:12.853Z,83.72
2019-04-03T19:04:43.106Z,83.72
2019-04-03T19:07:15.258Z,83.74
2019-04-03T19:09:44.853Z,83.51
2019-04-03T19:12:14.614Z,83.51
2019-04-03T19:14:47.325Z,83.97
2019-04-03T19:17:17.114Z,83.92
2019-04-03T19:19:47.785Z,83.48
2019-04-03T19:22:25.450Z,83.48
2019-04-03T19:24:55.136Z,82.96
2019-04-03T19:27:25.259Z,83.73
2019-04-03T19:29:55.102Z,83.73
2019-04-03T19:32:24.997Z,84.23
2019-04-03T19:34:56.644Z,82.63
2019-04-03T19:37:29.274Z,83.42
2019-04-03T19:40:01.614Z,82.85
2019-04-03T19:42:31.453Z,82.85
2019-04-03T19:45:02.170Z,83.82
2019-04-03T19:47:32.005Z,83.77
2019-04-03T19:50:01.891Z,83.77
2019-04-03T19:52:31.673Z,83.53
2019-04-03T19:55:01.364Z,84.19
2019-04-03T19:57:31.065Z,84.18
2019-04-03T20:00:05.663Z,84.18
2019-04-03T20:02:37.818Z,84.41
2019-04-03T20:05:07.297Z,84.42
2019-04-03T20:07:36.970Z,84.54
2019-04-03T20:10:09.191Z,83.79
2019-04-03T20:12:39.159Z,84.30
2019-04-03T20:15:09.716Z,84.00
2019-04-03T20:17:40.275Z,84.00
2019-04-03T20:20:11.302Z,84.93
2019-04-03T20:22:42.651Z,84.93
2019-04-03T20:25:15.160Z,84.36
2019-04-03T20:27:47.264Z,84.44
2019-04-03T20:30:17.401Z,85.58
2019-04-03T20:32:47.066Z,85.01
2019-04-03T20:35:18.642Z,85.68
2019-04-03T20:37:50.302Z,85.57
2019-04-03T20:40:20.342Z,85.57
2019-04-03T20:42:50.312Z,86.03
2019-04-03T20:45:20.548Z,86.03
2019-04-03T20:47:50.263Z,86.46
2019-04-03T20:50:20.484Z,86.51
2019-04-03T20:52:50.634Z,86.71
2019-04-03T20:55:25.475Z,85.59
2019-04-03T20:57:57.082Z,86.49
2019-04-03T21:00:27.000Z,85.74
2019-04-03T21:02:56.973Z,85.74
2019-04-03T21:05:27.937Z,86.24
2019-04-03T21:07:57.554Z,86.47
2019-04-03T21:10:31.145Z,86.47
2019-04-03T21:13:02.046Z,86.63
2019-04-03T21:15:31.991Z,87.09
2019-04-03T21:18:01.939Z,85.97
2019-04-03T21:20:31.855Z,86.19
2019-04-03T21:23:03.570Z,86.19
2019-04-03T21:25:35.625Z,86.40
2019-04-03T21:28:06.354Z,86.09
2019-04-03T21:30:36.086Z,85.80
2019-04-03T21:33:05.742Z,86.08
2019-04-03T21:35:36.034Z,86.44
2019-04-03T21:38:05.999Z,86.44
2019-04-03T21:40:35.633Z,85.21
2019-04-03T21:43:07.502Z,84.66
2019-04-03T21:45:38.548Z,85.87
2019-04-03T21:48:09.718Z,86.17
2019-04-03T21:50:39.582Z,86.67
2019-04-03T21:53:09.454Z,86.29
2019-04-03T21:55:39.205Z,86.29
2019-04-03T21:58:09.400Z,86.08
2019-04-03T22:01:26.677Z,86.08
2019-04-03T22:03:56.862Z,85.88
2019-04-03T22:06:27.727Z,85.88
2019-04-03T22:08:59.657Z,86.89
2019-04-03T22:11:30.365Z,86.54
2019-04-03T22:14:00.220Z,86.29
2019-04-03T22:16:30.000Z,86.29
2019-04-03T22:18:59.772Z,86.67
2019-04-03T22:21:32.240Z,86.26
2019-04-03T22:24:01.146Z,86.67
2019-04-03T22:26:31.716Z,86.67
2019-04-03T22:29:02.030Z,88.26
2019-04-03T22:31:32.317Z,87.70
2019-04-03T22:34:02.846Z,87.88
2019-04-03T22:36:33.658Z,87.21
2019-04-03T22:39:07.707Z,86.99
2019-04-03T22:41:36.844Z,87.57
2019-04-03T22:44:07.144Z,87.57
2019-04-03T22:46:37.131Z,87.45
2019-04-03T22:49:07.338Z,86.62
2019-04-03T22:51:37.722Z,87.10
2019-04-03T22:54:07.970Z,86.80
2019-04-03T22:56:37.741Z,87.47
2019-04-03T22:59:08.344Z,87.47
2019-04-03T23:01:38.702Z,87.25
2019-04-03T23:04:10.340Z,86.55
2019-04-03T23:06:40.094Z,86.42
2019-04-03T23:09:10.040Z,87.26
2019-04-03T23:11:40.669Z,87.26
2019-04-03T23:14:10.292Z,86.68
2019-04-03T23:16:40.727Z,86.68
2019-04-03T23:19:11.654Z,87.44
2019-04-03T23:21:41.281Z,86.96
2019-04-03T23:24:11.044Z,86.96
2019-04-03T23:26:41.280Z,87.30
2019-04-03T23:29:11.329Z,86.64
2019-04-03T23:31:41.194Z,86.64
2019-04-03T23:34:11.380Z,86.75
2019-04-03T23:36:41.056Z,86.67
2019-04-03T23:39:11.345Z,86.67
2019-04-03T23:41:41.039Z,85.89
2019-04-03T23:44:11.565Z,85.89
2019-04-03T23:46:41.487Z,85.50
2019-04-03T23:49:11.235Z,87.06
2019-04-03T23:51:41.238Z,87.06
2019-04-03T23:54:11.754Z,87.10
2019-04-03T23:56:41.815Z,87.52
2019-04-03T23:59:13.027Z,87.38
